sensor_id;sensor_type;location;lat;lon;timestamp;P1;durP1;ratioP1;P2;durP2;ratioP2
27539;SDS011;15906;52.046;4.724;2023-05-27T00:01:58;17.20;;;5.07;;
27539;SDS011;15906;52.046;4.724;2023-05-27T00:04:24;20.23;;;5.85;;
27539;SDS011;15906;52.046;4.724;2023-05-27T00:06:50;21.27;;;5.43;;
27539;SDS011;15906;52.046;4.724;2023-05-27T00:09:15;20.02;;;5.32;;
27539;SDS011;15906;52.046;4.724;2023-05-27T00:11:41;18.67;;;6.93;;
27539;SDS011;15906;52.046;4.724;2023-05-27T00:14:06;17.25;;;5.45;;
27539;SDS011;15906;52.046;4.724;2023-05-27T00:16:32;19.67;;;5.43;;
27539;SDS011;15906;52.046;4.724;2023-05-27T00:19:00;16.73;;;5.32;;
27539;SDS011;15906;52.046;4.724;2023-05-27T00:21:26;20.98;;;6.10;;
27539;SDS011;15906;52.046;4.724;2023-05-27T00:23:52;15.43;;;5.20;;
27539;SDS011;15906;52.046;4.724;2023-05-27T00:26:17;20.52;;;5.55;;
27539;SDS011;15906;52.046;4.724;2023-05-27T00:28:43;18.67;;;5.15;;
27539;SDS011;15906;52.046;4.724;2023-05-27T00:31:09;17.05;;;4.90;;
27539;SDS011;15906;52.046;4.724;2023-05-27T00:33:34;13.07;;;5.13;;
27539;SDS011;15906;52.046;4.724;2023-05-27T00:36:00;20.58;;;4.82;;
27539;SDS011;15906;52.046;4.724;2023-05-27T00:38:26;18.58;;;5.60;;
27539;SDS011;15906;52.046;4.724;2023-05-27T00:40:52;18.35;;;5.15;;
27539;SDS011;15906;52.046;4.724;2023-05-27T00:43:18;16.70;;;4.50;;
27539;SDS011;15906;52.046;4.724;2023-05-27T00:45:44;16.73;;;4.63;;
27539;SDS011;15906;52.046;4.724;2023-05-27T00:48:10;14.07;;;4.20;;
27539;SDS011;15906;52.046;4.724;2023-05-27T00:50:36;19.38;;;4.63;;
27539;SDS011;15906;52.046;4.724;2023-05-27T00:53:02;19.55;;;4.45;;
27539;SDS011;15906;52.046;4.724;2023-05-27T00:55:27;13.40;;;4.95;;
27539;SDS011;15906;52.046;4.724;2023-05-27T00:57:53;14.88;;;4.85;;
27539;SDS011;15906;52.046;4.724;2023-05-27T01:00:19;21.88;;;5.55;;
27539;SDS011;15906;52.046;4.724;2023-05-27T01:02:46;11.75;;;4.45;;
27539;SDS011;15906;52.046;4.724;2023-05-27T01:05:13;18.75;;;5.15;;
27539;SDS011;15906;52.046;4.724;2023-05-27T01:10:33;22.48;;;4.78;;
27539;SDS011;15906;52.046;4.724;2023-05-27T01:15:34;15.00;;;5.03;;
27539;SDS011;15906;52.046;4.724;2023-05-27T01:18:01;18.20;;;4.15;;
27539;SDS011;15906;52.046;4.724;2023-05-27T01:20:28;13.02;;;3.72;;
27539;SDS011;15906;52.046;4.724;2023-05-27T01:22:54;10.57;;;4.85;;
27539;SDS011;15906;52.046;4.724;2023-05-27T01:25:22;13.40;;;4.28;;
27539;SDS011;15906;52.046;4.724;2023-05-27T01:27:49;16.73;;;4.78;;
27539;SDS011;15906;52.046;4.724;2023-05-27T01:30:16;17.63;;;5.03;;
27539;SDS011;15906;52.046;4.724;2023-05-27T01:37:56;11.45;;;4.15;;
27539;SDS011;15906;52.046;4.724;2023-05-27T01:40:26;12.30;;;4.30;;
27539;SDS011;15906;52.046;4.724;2023-05-27T01:42:53;14.27;;;4.65;;
27539;SDS011;15906;52.046;4.724;2023-05-27T01:45:21;20.67;;;5.28;;
27539;SDS011;15906;52.046;4.724;2023-05-27T01:47:47;17.52;;;4.40;;
27539;SDS011;15906;52.046;4.724;2023-05-27T01:50:13;16.95;;;4.18;;
27539;SDS011;15906;52.046;4.724;2023-05-27T01:52:39;13.10;;;4.68;;
27539;SDS011;15906;52.046;4.724;2023-05-27T01:55:05;12.82;;;3.95;;
27539;SDS011;15906;52.046;4.724;2023-05-27T01:57:31;11.05;;;3.75;;
27539;SDS011;15906;52.046;4.724;2023-05-27T01:59:57;17.40;;;5.05;;
27539;SDS011;15906;52.046;4.724;2023-05-27T02:02:22;20.08;;;4.68;;
27539;SDS011;15906;52.046;4.724;2023-05-27T02:04:48;11.30;;;5.07;;
27539;SDS011;15906;52.046;4.724;2023-05-27T02:07:13;12.50;;;4.05;;
27539;SDS011;15906;52.046;4.724;2023-05-27T02:09:39;14.88;;;4.82;;
27539;SDS011;15906;52.046;4.724;2023-05-27T02:12:05;20.33;;;6.28;;
27539;SDS011;15906;52.046;4.724;2023-05-27T02:14:31;17.05;;;4.60;;
27539;SDS011;15906;52.046;4.724;2023-05-27T02:16:57;14.68;;;4.82;;
27539;SDS011;15906;52.046;4.724;2023-05-27T02:19:23;11.20;;;4.53;;
27539;SDS011;15906;52.046;4.724;2023-05-27T02:21:49;19.67;;;4.55;;
27539;SDS011;15906;52.046;4.724;2023-05-27T02:24:15;23.70;;;5.25;;
27539;SDS011;15906;52.046;4.724;2023-05-27T02:26:41;17.67;;;4.60;;
27539;SDS011;15906;52.046;4.724;2023-05-27T02:29:06;14.98;;;4.50;;
27539;SDS011;15906;52.046;4.724;2023-05-27T02:31:32;17.23;;;4.65;;
27539;SDS011;15906;52.046;4.724;2023-05-27T02:33:57;21.65;;;5.15;;
27539;SDS011;15906;52.046;4.724;2023-05-27T02:36:23;18.92;;;4.90;;
27539;SDS011;15906;52.046;4.724;2023-05-27T02:38:49;22.90;;;5.32;;
27539;SDS011;15906;52.046;4.724;2023-05-27T02:41:14;19.70;;;5.95;;
27539;SDS011;15906;52.046;4.724;2023-05-27T02:43:40;19.85;;;5.25;;
27539;SDS011;15906;52.046;4.724;2023-05-27T02:46:06;11.77;;;4.38;;
27539;SDS011;15906;52.046;4.724;2023-05-27T02:48:31;21.70;;;5.03;;
27539;SDS011;15906;52.046;4.724;2023-05-27T02:50:57;18.33;;;5.18;;
27539;SDS011;15906;52.046;4.724;2023-05-27T02:53:22;21.17;;;4.60;;
27539;SDS011;15906;52.046;4.724;2023-05-27T02:55:49;15.18;;;4.53;;
27539;SDS011;15906;52.046;4.724;2023-05-27T02:58:15;17.60;;;5.40;;
27539;SDS011;15906;52.046;4.724;2023-05-27T03:00:41;21.40;;;6.03;;
27539;SDS011;15906;52.046;4.724;2023-05-27T03:03:06;17.05;;;4.70;;
27539;SDS011;15906;52.046;4.724;2023-05-27T03:05:33;16.38;;;5.78;;
27539;SDS011;15906;52.046;4.724;2023-05-27T03:08:00;13.02;;;5.07;;
27539;SDS011;15906;52.046;4.724;2023-05-27T03:10:26;16.13;;;5.22;;
27539;SDS011;15906;52.046;4.724;2023-05-27T03:12:53;18.33;;;4.82;;
27539;SDS011;15906;52.046;4.724;2023-05-27T03:15:20;15.57;;;4.95;;
27539;SDS011;15906;52.046;4.724;2023-05-27T03:17:46;19.20;;;4.78;;
27539;SDS011;15906;52.046;4.724;2023-05-27T03:20:12;17.42;;;5.05;;
27539;SDS011;15906;52.046;4.724;2023-05-27T03:22:38;13.85;;;5.47;;
27539;SDS011;15906;52.046;4.724;2023-05-27T03:25:04;21.60;;;5.15;;
27539;SDS011;15906;52.046;4.724;2023-05-27T03:27:30;20.88;;;5.30;;
27539;SDS011;15906;52.046;4.724;2023-05-27T03:29:56;15.60;;;5.57;;
27539;SDS011;15906;52.046;4.724;2023-05-27T03:32:21;11.05;;;4.57;;
27539;SDS011;15906;52.046;4.724;2023-05-27T03:34:47;19.88;;;4.30;;
27539;SDS011;15906;52.046;4.724;2023-05-27T03:37:13;15.93;;;4.93;;
27539;SDS011;15906;52.046;4.724;2023-05-27T03:39:39;19.45;;;5.53;;
27539;SDS011;15906;52.046;4.724;2023-05-27T03:42:05;13.30;;;4.43;;
27539;SDS011;15906;52.046;4.724;2023-05-27T03:44:31;22.65;;;6.18;;
27539;SDS011;15906;52.046;4.724;2023-05-27T03:46:57;21.65;;;5.63;;
27539;SDS011;15906;52.046;4.724;2023-05-27T03:49:22;12.15;;;5.57;;
27539;SDS011;15906;52.046;4.724;2023-05-27T03:51:48;15.65;;;5.03;;
27539;SDS011;15906;52.046;4.724;2023-05-27T03:54:14;13.63;;;4.95;;
27539;SDS011;15906;52.046;4.724;2023-05-27T03:56:40;17.70;;;5.32;;
27539;SDS011;15906;52.046;4.724;2023-05-27T03:59:05;15.90;;;4.30;;
27539;SDS011;15906;52.046;4.724;2023-05-27T04:01:33;20.48;;;5.80;;
27539;SDS011;15906;52.046;4.724;2023-05-27T04:03:59;25.27;;;5.30;;
27539;SDS011;15906;52.046;4.724;2023-05-27T04:06:25;19.98;;;5.43;;
27539;SDS011;15906;52.046;4.724;2023-05-27T04:08:50;18.55;;;5.60;;
27539;SDS011;15906;52.046;4.724;2023-05-27T04:11:16;16.17;;;4.03;;
27539;SDS011;15906;52.046;4.724;2023-05-27T04:13:41;21.02;;;5.40;;
27539;SDS011;15906;52.046;4.724;2023-05-27T04:16:07;16.80;;;4.72;;
27539;SDS011;15906;52.046;4.724;2023-05-27T04:18:33;13.70;;;4.88;;
27539;SDS011;15906;52.046;4.724;2023-05-27T04:21:00;20.08;;;5.00;;
27539;SDS011;15906;52.046;4.724;2023-05-27T04:23:26;22.40;;;5.93;;
27539;SDS011;15906;52.046;4.724;2023-05-27T04:25:51;19.13;;;5.10;;
27539;SDS011;15906;52.046;4.724;2023-05-27T04:28:18;17.20;;;5.43;;
27539;SDS011;15906;52.046;4.724;2023-05-27T04:30:43;18.55;;;5.07;;
27539;SDS011;15906;52.046;4.724;2023-05-27T04:33:10;14.93;;;5.03;;
27539;SDS011;15906;52.046;4.724;2023-05-27T04:35:38;20.60;;;5.32;;
27539;SDS011;15906;52.046;4.724;2023-05-27T04:38:06;20.58;;;5.38;;
27539;SDS011;15906;52.046;4.724;2023-05-27T04:40:32;15.98;;;4.57;;
27539;SDS011;15906;52.046;4.724;2023-05-27T04:42:59;18.33;;;5.35;;
27539;SDS011;15906;52.046;4.724;2023-05-27T04:45:25;19.20;;;5.82;;
27539;SDS011;15906;52.046;4.724;2023-05-27T04:47:52;22.98;;;5.28;;
27539;SDS011;15906;52.046;4.724;2023-05-27T04:50:17;19.40;;;4.80;;
27539;SDS011;15906;52.046;4.724;2023-05-27T04:52:43;18.33;;;5.18;;
27539;SDS011;15906;52.046;4.724;2023-05-27T04:55:10;20.92;;;4.70;;
27539;SDS011;15906;52.046;4.724;2023-05-27T04:57:36;23.25;;;5.45;;
27539;SDS011;15906;52.046;4.724;2023-05-27T05:00:04;20.05;;;5.90;;
27539;SDS011;15906;52.046;4.724;2023-05-27T05:02:30;17.05;;;4.85;;
27539;SDS011;15906;52.046;4.724;2023-05-27T05:05:02;18.58;;;4.82;;
27539;SDS011;15906;52.046;4.724;2023-05-27T05:07:29;15.48;;;4.72;;
27539;SDS011;15906;52.046;4.724;2023-05-27T05:09:55;14.85;;;4.32;;
27539;SDS011;15906;52.046;4.724;2023-05-27T05:12:21;18.13;;;5.07;;
27539;SDS011;15906;52.046;4.724;2023-05-27T05:14:47;20.67;;;4.97;;
27539;SDS011;15906;52.046;4.724;2023-05-27T05:17:12;19.38;;;5.00;;
27539;SDS011;15906;52.046;4.724;2023-05-27T05:19:38;17.65;;;4.60;;
27539;SDS011;15906;52.046;4.724;2023-05-27T05:22:04;18.75;;;5.38;;
27539;SDS011;15906;52.046;4.724;2023-05-27T05:24:29;20.40;;;5.97;;
27539;SDS011;15906;52.046;4.724;2023-05-27T05:26:55;20.60;;;5.55;;
27539;SDS011;15906;52.046;4.724;2023-05-27T05:29:21;17.83;;;6.00;;
27539;SDS011;15906;52.046;4.724;2023-05-27T05:31:46;17.73;;;5.03;;
27539;SDS011;15906;52.046;4.724;2023-05-27T05:34:12;21.80;;;6.25;;
27539;SDS011;15906;52.046;4.724;2023-05-27T05:36:38;27.13;;;6.07;;
27539;SDS011;15906;52.046;4.724;2023-05-27T05:39:03;14.02;;;5.70;;
27539;SDS011;15906;52.046;4.724;2023-05-27T05:41:29;17.02;;;5.70;;
27539;SDS011;15906;52.046;4.724;2023-05-27T05:43:55;24.88;;;5.95;;
27539;SDS011;15906;52.046;4.724;2023-05-27T05:46:21;18.00;;;5.28;;
27539;SDS011;15906;52.046;4.724;2023-05-27T05:48:46;14.90;;;5.35;;
27539;SDS011;15906;52.046;4.724;2023-05-27T05:51:12;17.95;;;5.38;;
27539;SDS011;15906;52.046;4.724;2023-05-27T05:53:37;23.48;;;6.68;;
27539;SDS011;15906;52.046;4.724;2023-05-27T05:56:03;17.08;;;5.72;;
27539;SDS011;15906;52.046;4.724;2023-05-27T05:58:29;20.23;;;5.80;;
27539;SDS011;15906;52.046;4.724;2023-05-27T06:00:55;15.38;;;5.53;;
27539;SDS011;15906;52.046;4.724;2023-05-27T06:03:21;16.05;;;5.35;;
27539;SDS011;15906;52.046;4.724;2023-05-27T06:05:46;16.15;;;6.88;;
27539;SDS011;15906;52.046;4.724;2023-05-27T06:08:12;19.20;;;5.85;;
27539;SDS011;15906;52.046;4.724;2023-05-27T06:10:37;21.25;;;5.47;;
27539;SDS011;15906;52.046;4.724;2023-05-27T06:13:03;20.60;;;5.63;;
27539;SDS011;15906;52.046;4.724;2023-05-27T06:15:29;21.30;;;6.07;;
27539;SDS011;15906;52.046;4.724;2023-05-27T06:17:55;19.13;;;6.05;;
27539;SDS011;15906;52.046;4.724;2023-05-27T06:20:21;19.48;;;5.80;;
27539;SDS011;15906;52.046;4.724;2023-05-27T06:22:47;17.58;;;5.97;;
27539;SDS011;15906;52.046;4.724;2023-05-27T06:25:13;22.42;;;5.35;;
27539;SDS011;15906;52.046;4.724;2023-05-27T06:27:39;16.63;;;4.82;;
27539;SDS011;15906;52.046;4.724;2023-05-27T06:30:04;16.30;;;6.10;;
27539;SDS011;15906;52.046;4.724;2023-05-27T06:32:31;22.55;;;6.13;;
27539;SDS011;15906;52.046;4.724;2023-05-27T06:34:56;14.65;;;5.38;;
27539;SDS011;15906;52.046;4.724;2023-05-27T06:37:22;19.77;;;5.50;;
27539;SDS011;15906;52.046;4.724;2023-05-27T06:39:47;18.02;;;4.85;;
27539;SDS011;15906;52.046;4.724;2023-05-27T06:42:13;16.98;;;5.85;;
27539;SDS011;15906;52.046;4.724;2023-05-27T06:44:39;19.42;;;5.88;;
27539;SDS011;15906;52.046;4.724;2023-05-27T06:47:05;26.10;;;6.03;;
27539;SDS011;15906;52.046;4.724;2023-05-27T06:49:31;23.80;;;6.18;;
27539;SDS011;15906;52.046;4.724;2023-05-27T06:51:56;12.73;;;6.38;;
27539;SDS011;15906;52.046;4.724;2023-05-27T06:54:22;22.98;;;6.47;;
27539;SDS011;15906;52.046;4.724;2023-05-27T06:56:47;17.05;;;5.07;;
27539;SDS011;15906;52.046;4.724;2023-05-27T06:59:13;17.75;;;5.35;;
27539;SDS011;15906;52.046;4.724;2023-05-27T07:01:38;20.95;;;5.70;;
27539;SDS011;15906;52.046;4.724;2023-05-27T07:04:04;16.88;;;6.03;;
27539;SDS011;15906;52.046;4.724;2023-05-27T07:06:30;14.05;;;5.28;;
27539;SDS011;15906;52.046;4.724;2023-05-27T07:08:56;20.83;;;5.97;;
27539;SDS011;15906;52.046;4.724;2023-05-27T07:11:22;23.33;;;6.28;;
27539;SDS011;15906;52.046;4.724;2023-05-27T07:13:48;16.52;;;6.35;;
27539;SDS011;15906;52.046;4.724;2023-05-27T07:16:13;18.55;;;6.28;;
27539;SDS011;15906;52.046;4.724;2023-05-27T07:18:39;16.60;;;5.13;;
27539;SDS011;15906;52.046;4.724;2023-05-27T07:21:05;21.60;;;6.80;;
27539;SDS011;15906;52.046;4.724;2023-05-27T07:23:31;19.13;;;6.32;;
27539;SDS011;15906;52.046;4.724;2023-05-27T07:25:56;21.10;;;6.53;;
27539;SDS011;15906;52.046;4.724;2023-05-27T07:28:22;23.85;;;5.82;;
27539;SDS011;15906;52.046;4.724;2023-05-27T07:30:47;18.17;;;5.85;;
27539;SDS011;15906;52.046;4.724;2023-05-27T07:33:13;21.55;;;6.20;;
27539;SDS011;15906;52.046;4.724;2023-05-27T07:35:39;21.40;;;6.10;;
27539;SDS011;15906;52.046;4.724;2023-05-27T07:38:05;18.83;;;5.55;;
27539;SDS011;15906;52.046;4.724;2023-05-27T07:40:31;20.65;;;5.65;;
27539;SDS011;15906;52.046;4.724;2023-05-27T07:42:56;17.40;;;4.45;;
27539;SDS011;15906;52.046;4.724;2023-05-27T07:45:22;19.52;;;5.32;;
27539;SDS011;15906;52.046;4.724;2023-05-27T07:47:48;16.80;;;4.90;;
27539;SDS011;15906;52.046;4.724;2023-05-27T07:50:13;17.58;;;4.97;;
27539;SDS011;15906;52.046;4.724;2023-05-27T07:52:40;14.00;;;5.13;;
27539;SDS011;15906;52.046;4.724;2023-05-27T07:55:06;16.27;;;4.80;;
27539;SDS011;15906;52.046;4.724;2023-05-27T07:57:32;15.25;;;5.47;;
27539;SDS011;15906;52.046;4.724;2023-05-27T07:59:58;18.25;;;6.20;;
27539;SDS011;15906;52.046;4.724;2023-05-27T08:02:23;13.70;;;5.18;;
27539;SDS011;15906;52.046;4.724;2023-05-27T08:04:50;16.98;;;5.75;;
27539;SDS011;15906;52.046;4.724;2023-05-27T08:07:17;20.45;;;5.47;;
27539;SDS011;15906;52.046;4.724;2023-05-27T08:09:42;13.88;;;5.55;;
27539;SDS011;15906;52.046;4.724;2023-05-27T08:12:08;11.13;;;5.22;;
27539;SDS011;15906;52.046;4.724;2023-05-27T08:14:38;21.35;;;5.10;;
27539;SDS011;15906;52.046;4.724;2023-05-27T08:17:05;15.57;;;5.07;;
27539;SDS011;15906;52.046;4.724;2023-05-27T08:19:31;17.17;;;4.80;;
27539;SDS011;15906;52.046;4.724;2023-05-27T08:21:56;19.75;;;5.55;;
27539;SDS011;15906;52.046;4.724;2023-05-27T08:24:22;17.67;;;6.32;;
27539;SDS011;15906;52.046;4.724;2023-05-27T08:26:48;16.10;;;5.68;;
27539;SDS011;15906;52.046;4.724;2023-05-27T08:29:15;17.77;;;4.97;;
27539;SDS011;15906;52.046;4.724;2023-05-27T08:31:41;14.82;;;5.50;;
27539;SDS011;15906;52.046;4.724;2023-05-27T08:34:06;15.82;;;5.07;;
27539;SDS011;15906;52.046;4.724;2023-05-27T08:36:32;16.58;;;5.80;;
27539;SDS011;15906;52.046;4.724;2023-05-27T08:38:58;19.17;;;5.50;;
27539;SDS011;15906;52.046;4.724;2023-05-27T08:41:24;22.80;;;6.13;;
27539;SDS011;15906;52.046;4.724;2023-05-27T08:43:52;17.77;;;6.40;;
27539;SDS011;15906;52.046;4.724;2023-05-27T08:46:17;17.23;;;5.75;;
27539;SDS011;15906;52.046;4.724;2023-05-27T08:48:44;16.85;;;6.10;;
27539;SDS011;15906;52.046;4.724;2023-05-27T08:51:10;15.25;;;5.53;;
27539;SDS011;15906;52.046;4.724;2023-05-27T08:53:37;22.60;;;6.80;;
27539;SDS011;15906;52.046;4.724;2023-05-27T08:56:03;21.48;;;5.60;;
27539;SDS011;15906;52.046;4.724;2023-05-27T08:58:31;15.63;;;5.38;;
27539;SDS011;15906;52.046;4.724;2023-05-27T09:00:57;18.05;;;6.00;;
27539;SDS011;15906;52.046;4.724;2023-05-27T09:03:23;18.55;;;6.38;;
27539;SDS011;15906;52.046;4.724;2023-05-27T09:05:49;17.65;;;5.85;;
27539;SDS011;15906;52.046;4.724;2023-05-27T09:08:14;17.48;;;6.20;;
27539;SDS011;15906;52.046;4.724;2023-05-27T09:10:40;21.67;;;5.85;;
27539;SDS011;15906;52.046;4.724;2023-05-27T09:13:07;13.98;;;4.95;;
27539;SDS011;15906;52.046;4.724;2023-05-27T09:15:34;20.85;;;6.63;;
27539;SDS011;15906;52.046;4.724;2023-05-27T09:18:01;17.90;;;6.05;;
27539;SDS011;15906;52.046;4.724;2023-05-27T09:20:27;13.88;;;5.80;;
27539;SDS011;15906;52.046;4.724;2023-05-27T09:23:01;16.55;;;5.75;;
27539;SDS011;15906;52.046;4.724;2023-05-27T09:25:28;13.75;;;5.57;;
27539;SDS011;15906;52.046;4.724;2023-05-27T09:27:54;13.98;;;5.60;;
27539;SDS011;15906;52.046;4.724;2023-05-27T09:30:20;24.80;;;5.78;;
27539;SDS011;15906;52.046;4.724;2023-05-27T09:32:47;19.83;;;5.70;;
27539;SDS011;15906;52.046;4.724;2023-05-27T09:35:14;16.77;;;5.82;;
27539;SDS011;15906;52.046;4.724;2023-05-27T09:37:40;19.30;;;6.05;;
27539;SDS011;15906;52.046;4.724;2023-05-27T09:40:07;21.38;;;6.60;;
27539;SDS011;15906;52.046;4.724;2023-05-27T09:45:11;18.30;;;6.25;;
27539;SDS011;15906;52.046;4.724;2023-05-27T09:47:39;15.60;;;6.07;;
27539;SDS011;15906;52.046;4.724;2023-05-27T09:50:05;16.88;;;6.03;;
27539;SDS011;15906;52.046;4.724;2023-05-27T09:52:34;19.63;;;5.80;;
27539;SDS011;15906;52.046;4.724;2023-05-27T09:55:03;17.08;;;5.97;;
27539;SDS011;15906;52.046;4.724;2023-05-27T09:57:30;24.08;;;7.00;;
27539;SDS011;15906;52.046;4.724;2023-05-27T09:59:56;22.83;;;6.43;;
27539;SDS011;15906;52.046;4.724;2023-05-27T10:02:25;17.33;;;6.00;;
27539;SDS011;15906;52.046;4.724;2023-05-27T10:04:52;16.23;;;5.30;;
27539;SDS011;15906;52.046;4.724;2023-05-27T10:07:19;17.08;;;6.05;;
27539;SDS011;15906;52.046;4.724;2023-05-27T10:09:46;20.45;;;6.00;;
27539;SDS011;15906;52.046;4.724;2023-05-27T10:12:14;21.08;;;5.97;;
27539;SDS011;15906;52.046;4.724;2023-05-27T10:14:41;18.60;;;5.80;;
27539;SDS011;15906;52.046;4.724;2023-05-27T10:17:09;13.38;;;5.88;;
27539;SDS011;15906;52.046;4.724;2023-05-27T10:19:35;16.67;;;6.22;;
27539;SDS011;15906;52.046;4.724;2023-05-27T10:22:08;16.52;;;5.55;;
27539;SDS011;15906;52.046;4.724;2023-05-27T10:24:39;20.10;;;6.13;;
27539;SDS011;15906;52.046;4.724;2023-05-27T10:27:05;17.58;;;6.93;;
27539;SDS011;15906;52.046;4.724;2023-05-27T10:29:38;17.98;;;6.60;;
27539;SDS011;15906;52.046;4.724;2023-05-27T10:32:04;23.75;;;6.63;;
27539;SDS011;15906;52.046;4.724;2023-05-27T10:34:36;15.73;;;5.55;;
27539;SDS011;15906;52.046;4.724;2023-05-27T10:37:02;16.80;;;5.65;;
27539;SDS011;15906;52.046;4.724;2023-05-27T10:39:28;19.42;;;6.40;;
27539;SDS011;15906;52.046;4.724;2023-05-27T10:41:55;12.63;;;5.70;;
27539;SDS011;15906;52.046;4.724;2023-05-27T10:44:37;21.85;;;6.78;;
27539;SDS011;15906;52.046;4.724;2023-05-27T10:47:08;20.30;;;7.20;;
27539;SDS011;15906;52.046;4.724;2023-05-27T10:49:36;20.13;;;7.28;;
27539;SDS011;15906;52.046;4.724;2023-05-27T10:52:16;14.18;;;6.15;;
27539;SDS011;15906;52.046;4.724;2023-05-27T10:54:43;21.98;;;7.30;;
27539;SDS011;15906;52.046;4.724;2023-05-27T10:57:16;15.20;;;6.82;;
27539;SDS011;15906;52.046;4.724;2023-05-27T11:02:11;24.40;;;6.90;;
27539;SDS011;15906;52.046;4.724;2023-05-27T11:04:37;23.48;;;7.55;;
27539;SDS011;15906;52.046;4.724;2023-05-27T11:07:03;14.05;;;6.95;;
27539;SDS011;15906;52.046;4.724;2023-05-27T11:09:29;15.48;;;6.90;;
27539;SDS011;15906;52.046;4.724;2023-05-27T11:12:00;14.25;;;6.25;;
27539;SDS011;15906;52.046;4.724;2023-05-27T11:14:30;17.92;;;7.30;;
27539;SDS011;15906;52.046;4.724;2023-05-27T11:16:55;15.27;;;6.72;;
27539;SDS011;15906;52.046;4.724;2023-05-27T11:19:21;18.20;;;6.65;;
27539;SDS011;15906;52.046;4.724;2023-05-27T11:21:47;17.08;;;6.75;;
27539;SDS011;15906;52.046;4.724;2023-05-27T11:26:43;17.33;;;6.70;;
27539;SDS011;15906;52.046;4.724;2023-05-27T11:29:11;22.58;;;7.00;;
27539;SDS011;15906;52.046;4.724;2023-05-27T11:31:37;22.90;;;6.97;;
27539;SDS011;15906;52.046;4.724;2023-05-27T11:34:15;16.13;;;7.55;;
27539;SDS011;15906;52.046;4.724;2023-05-27T11:36:44;20.42;;;7.43;;
27539;SDS011;15906;52.046;4.724;2023-05-27T11:39:13;17.05;;;7.30;;
27539;SDS011;15906;52.046;4.724;2023-05-27T11:41:49;19.40;;;6.75;;
27539;SDS011;15906;52.046;4.724;2023-05-27T11:44:17;18.35;;;6.28;;
27539;SDS011;15906;52.046;4.724;2023-05-27T11:46:47;17.25;;;7.57;;
27539;SDS011;15906;52.046;4.724;2023-05-27T11:49:14;15.25;;;7.25;;
27539;SDS011;15906;52.046;4.724;2023-05-27T11:51:44;16.00;;;6.72;;
27539;SDS011;15906;52.046;4.724;2023-05-27T11:54:18;17.27;;;6.40;;
27539;SDS011;15906;52.046;4.724;2023-05-27T11:56:48;15.80;;;5.93;;
27539;SDS011;15906;52.046;4.724;2023-05-27T11:59:15;13.75;;;5.78;;
27539;SDS011;15906;52.046;4.724;2023-05-27T12:01:41;13.90;;;6.30;;
27539;SDS011;15906;52.046;4.724;2023-05-27T12:04:07;16.38;;;6.47;;
27539;SDS011;15906;52.046;4.724;2023-05-27T12:06:32;14.98;;;6.10;;
27539;SDS011;15906;52.046;4.724;2023-05-27T12:08:58;20.90;;;6.90;;
27539;SDS011;15906;52.046;4.724;2023-05-27T12:11:24;16.30;;;6.63;;
27539;SDS011;15906;52.046;4.724;2023-05-27T12:13:50;17.35;;;6.45;;
27539;SDS011;15906;52.046;4.724;2023-05-27T12:16:18;15.35;;;6.90;;
27539;SDS011;15906;52.046;4.724;2023-05-27T12:18:43;15.32;;;7.10;;
27539;SDS011;15906;52.046;4.724;2023-05-27T12:21:10;14.45;;;6.97;;
27539;SDS011;15906;52.046;4.724;2023-05-27T12:23:35;19.05;;;7.43;;
27539;SDS011;15906;52.046;4.724;2023-05-27T12:26:01;20.55;;;6.43;;
27539;SDS011;15906;52.046;4.724;2023-05-27T12:28:27;20.10;;;6.97;;
27539;SDS011;15906;52.046;4.724;2023-05-27T12:30:52;18.67;;;6.57;;
27539;SDS011;15906;52.046;4.724;2023-05-27T12:33:18;18.08;;;6.30;;
27539;SDS011;15906;52.046;4.724;2023-05-27T12:35:43;16.95;;;5.97;;
27539;SDS011;15906;52.046;4.724;2023-05-27T12:38:09;21.73;;;6.45;;
27539;SDS011;15906;52.046;4.724;2023-05-27T12:40:35;18.15;;;6.75;;
27539;SDS011;15906;52.046;4.724;2023-05-27T12:43:01;16.67;;;6.45;;
27539;SDS011;15906;52.046;4.724;2023-05-27T12:45:28;16.48;;;5.82;;
27539;SDS011;15906;52.046;4.724;2023-05-27T12:47:55;14.73;;;6.43;;
27539;SDS011;15906;52.046;4.724;2023-05-27T12:50:21;15.05;;;6.47;;
27539;SDS011;15906;52.046;4.724;2023-05-27T12:52:47;15.77;;;5.97;;
27539;SDS011;15906;52.046;4.724;2023-05-27T12:55:14;17.42;;;6.28;;
27539;SDS011;15906;52.046;4.724;2023-05-27T12:57:42;18.25;;;7.75;;
27539;SDS011;15906;52.046;4.724;2023-05-27T13:00:10;19.25;;;6.60;;
27539;SDS011;15906;52.046;4.724;2023-05-27T13:02:37;19.60;;;6.30;;
27539;SDS011;15906;52.046;4.724;2023-05-27T13:05:03;16.02;;;6.68;;
27539;SDS011;15906;52.046;4.724;2023-05-27T13:07:31;16.42;;;5.97;;
27539;SDS011;15906;52.046;4.724;2023-05-27T13:09:56;17.10;;;5.88;;
27539;SDS011;15906;52.046;4.724;2023-05-27T13:12:25;14.48;;;5.68;;
27539;SDS011;15906;52.046;4.724;2023-05-27T13:14:52;17.63;;;6.75;;
27539;SDS011;15906;52.046;4.724;2023-05-27T13:17:18;16.95;;;7.10;;
27539;SDS011;15906;52.046;4.724;2023-05-27T13:19:43;17.92;;;6.28;;
27539;SDS011;15906;52.046;4.724;2023-05-27T13:22:09;16.80;;;6.72;;
27539;SDS011;15906;52.046;4.724;2023-05-27T13:24:35;19.70;;;6.53;;
27539;SDS011;15906;52.046;4.724;2023-05-27T13:27:01;21.20;;;6.93;;
27539;SDS011;15906;52.046;4.724;2023-05-27T13:29:28;17.42;;;6.13;;
27539;SDS011;15906;52.046;4.724;2023-05-27T13:31:53;19.40;;;6.45;;
27539;SDS011;15906;52.046;4.724;2023-05-27T13:34:19;16.77;;;6.13;;
27539;SDS011;15906;52.046;4.724;2023-05-27T13:36:45;16.20;;;5.53;;
27539;SDS011;15906;52.046;4.724;2023-05-27T13:39:10;16.70;;;6.97;;
27539;SDS011;15906;52.046;4.724;2023-05-27T13:41:36;12.57;;;5.50;;
27539;SDS011;15906;52.046;4.724;2023-05-27T13:44:01;15.52;;;5.80;;
27539;SDS011;15906;52.046;4.724;2023-05-27T13:46:27;20.42;;;6.07;;
27539;SDS011;15906;52.046;4.724;2023-05-27T13:48:53;14.57;;;5.85;;
27539;SDS011;15906;52.046;4.724;2023-05-27T13:51:19;16.02;;;6.35;;
27539;SDS011;15906;52.046;4.724;2023-05-27T13:53:44;15.55;;;6.85;;
27539;SDS011;15906;52.046;4.724;2023-05-27T13:56:10;20.55;;;7.22;;
27539;SDS011;15906;52.046;4.724;2023-05-27T13:58:36;14.68;;;5.95;;
27539;SDS011;15906;52.046;4.724;2023-05-27T14:01:01;18.98;;;6.03;;
27539;SDS011;15906;52.046;4.724;2023-05-27T14:03:27;17.90;;;6.22;;
27539;SDS011;15906;52.046;4.724;2023-05-27T14:05:52;18.33;;;7.00;;
27539;SDS011;15906;52.046;4.724;2023-05-27T14:08:18;13.02;;;6.03;;
27539;SDS011;15906;52.046;4.724;2023-05-27T14:10:43;18.52;;;6.20;;
27539;SDS011;15906;52.046;4.724;2023-05-27T14:13:09;16.83;;;6.78;;
27539;SDS011;15906;52.046;4.724;2023-05-27T14:15:34;21.85;;;6.65;;
27539;SDS011;15906;52.046;4.724;2023-05-27T14:18:00;13.70;;;5.50;;
27539;SDS011;15906;52.046;4.724;2023-05-27T14:20:26;18.70;;;6.68;;
27539;SDS011;15906;52.046;4.724;2023-05-27T14:22:52;16.98;;;6.50;;
27539;SDS011;15906;52.046;4.724;2023-05-27T14:25:17;18.35;;;6.50;;
27539;SDS011;15906;52.046;4.724;2023-05-27T14:27:45;14.98;;;5.50;;
27539;SDS011;15906;52.046;4.724;2023-05-27T14:30:11;18.17;;;6.47;;
27539;SDS011;15906;52.046;4.724;2023-05-27T14:32:36;17.42;;;6.45;;
27539;SDS011;15906;52.046;4.724;2023-05-27T14:35:02;17.52;;;6.60;;
27539;SDS011;15906;52.046;4.724;2023-05-27T14:37:28;15.35;;;5.80;;
27539;SDS011;15906;52.046;4.724;2023-05-27T14:39:53;18.10;;;5.50;;
27539;SDS011;15906;52.046;4.724;2023-05-27T14:42:19;13.68;;;6.32;;
27539;SDS011;15906;52.046;4.724;2023-05-27T14:44:45;15.55;;;4.93;;
27539;SDS011;15906;52.046;4.724;2023-05-27T14:47:10;16.60;;;6.72;;